createdAt,value
2018-04-22T00:01:57.619Z,14.70
2018-04-22T00:04:25.019Z,14.07
2018-04-22T00:06:52.508Z,16.87
2018-04-22T00:09:19.987Z,14.60
2018-04-22T00:11:47.385Z,14.90
2018-04-22T00:14:14.788Z,14.77
2018-04-22T00:16:42.201Z,15.45
2018-04-22T00:19:10.016Z,19.13
2018-04-22T00:21:37.417Z,15.47
2018-04-22T00:24:04.813Z,12.63
2018-04-22T00:26:32.323Z,15.43
2018-04-22T00:28:59.728Z,17.10
2018-04-22T00:31:27.885Z,18.20
2018-04-22T00:33:55.377Z,16.43
2018-04-22T00:36:22.791Z,16.63
2018-04-22T00:38:50.201Z,16.13
2018-04-22T00:41:17.615Z,18.97
2018-04-22T00:43:45.345Z,16.03
2018-04-22T00:46:12.728Z,15.50
2018-04-22T00:48:40.136Z,13.50
2018-04-22T00:51:07.516Z,16.30
2018-04-22T00:56:37.935Z,15.67
2018-04-22T00:59:05.342Z,16.83
2018-04-22T01:01:32.730Z,18.70
2018-04-22T01:04:00.134Z,17.55
2018-04-22T01:06:27.520Z,19.53
2018-04-22T01:08:54.921Z,16.70
2018-04-22T01:11:22.407Z,17.75
2018-04-22T01:13:49.799Z,17.87
2018-04-22T01:16:17.204Z,18.10
2018-04-22T01:18:44.680Z,18.40
2018-04-22T01:21:12.153Z,19.57
2018-04-22T01:23:39.544Z,18.67
2018-04-22T01:26:06.951Z,21.40
2018-04-22T01:28:34.349Z,19.93
2018-04-22T01:31:01.749Z,21.50
2018-04-22T01:33:29.151Z,18.95
2018-04-22T01:35:56.554Z,18.73
2018-04-22T01:38:24.841Z,17.00
2018-04-22T01:40:52.243Z,17.30
2018-04-22T01:43:19.643Z,17.40
2018-04-22T01:45:47.048Z,17.17
2018-04-22T01:48:14.453Z,18.83
2018-04-22T01:50:41.844Z,17.30
2018-04-22T01:53:09.724Z,16.70
2018-04-22T01:55:37.131Z,17.27
2018-04-22T01:58:04.536Z,17.93
2018-04-22T02:00:31.946Z,19.60
2018-04-22T02:02:59.352Z,21.87
2018-04-22T02:05:26.760Z,17.77
2018-04-22T02:07:54.183Z,18.90
2018-04-22T02:10:21.589Z,17.80
2018-04-22T02:12:49.897Z,17.20
2018-04-22T02:15:17.292Z,19.93
2018-04-22T02:17:44.697Z,18.70
2018-04-22T02:20:12.135Z,17.43
2018-04-22T02:22:39.539Z,19.53
2018-04-22T02:25:06.943Z,22.50
2018-04-22T02:27:34.347Z,19.90
2018-04-22T02:30:03.056Z,22.08
2018-04-22T02:32:30.454Z,20.12
2018-04-22T02:34:57.852Z,20.58
2018-04-22T02:37:25.272Z,19.77
2018-04-22T02:39:52.655Z,20.60
2018-04-22T02:42:20.068Z,20.70
2018-04-22T02:44:47.466Z,21.10
2018-04-22T02:47:14.872Z,19.37
2018-04-22T02:49:42.260Z,18.77
2018-04-22T02:52:09.664Z,19.87
2018-04-22T02:54:37.105Z,22.50
2018-04-22T02:57:05.277Z,20.45
2018-04-22T02:59:32.675Z,21.85
2018-04-22T03:02:00.070Z,22.33
2018-04-22T03:04:27.597Z,22.43
2018-04-22T03:06:54.991Z,20.95
2018-04-22T03:09:22.385Z,20.20
2018-04-22T03:11:50.006Z,20.33
2018-04-22T03:14:17.383Z,21.23
2018-04-22T03:16:44.781Z,22.40
2018-04-22T03:19:12.181Z,20.10
2018-04-22T03:21:39.719Z,21.45
2018-04-22T03:24:07.114Z,25.60
2018-04-22T03:26:34.940Z,22.60
2018-04-22T03:29:02.351Z,23.40
2018-04-22T03:31:29.744Z,22.50
2018-04-22T03:33:57.189Z,25.92
2018-04-22T03:36:24.586Z,32.33
2018-04-22T03:38:51.976Z,22.03
2018-04-22T03:41:19.551Z,26.37
2018-04-22T03:43:46.966Z,21.40
2018-04-22T03:46:14.353Z,21.77
2018-04-22T03:48:41.884Z,20.67
2018-04-22T03:51:09.268Z,22.50
2018-04-22T03:53:36.673Z,22.23
2018-04-22T03:56:04.077Z,24.63
2018-04-22T03:58:31.613Z,22.33
2018-04-22T04:00:59.006Z,29.70
2018-04-22T04:03:26.418Z,22.80
2018-04-22T04:05:53.826Z,25.13
2018-04-22T04:08:21.464Z,24.10
2018-04-22T04:10:48.867Z,25.20
2018-04-22T04:13:16.631Z,23.00
2018-04-22T04:15:44.171Z,25.07
2018-04-22T04:21:36.365Z,30.90
2018-04-22T04:27:24.892Z,36.33
2018-04-22T04:29:52.415Z,30.07
2018-04-22T04:32:19.802Z,28.53
2018-04-22T04:34:47.204Z,26.80
2018-04-22T04:37:14.600Z,30.73
2018-04-22T04:39:42.245Z,28.50
2018-04-22T04:42:09.632Z,30.73
2018-04-22T04:44:37.048Z,32.97
2018-04-22T04:47:04.483Z,32.77
2018-04-22T04:49:31.891Z,34.27
2018-04-22T04:51:59.295Z,28.70
2018-04-22T04:54:26.750Z,31.40
2018-04-22T04:56:54.262Z,36.42
2018-04-22T04:59:21.676Z,30.67
2018-04-22T05:01:49.068Z,28.60
2018-04-22T05:04:16.475Z,29.73
2018-04-22T05:06:44.028Z,28.62
2018-04-22T05:09:11.437Z,26.63
2018-04-22T05:11:38.831Z,29.60
2018-04-22T05:14:06.269Z,29.27
2018-04-22T05:16:33.736Z,29.30
2018-04-22T05:19:01.151Z,36.50
2018-04-22T05:21:28.533Z,29.43
2018-04-22T05:23:56.167Z,30.67
2018-04-22T05:26:24.009Z,31.33
2018-04-22T05:28:51.420Z,31.93
2018-04-22T05:31:18.876Z,29.47
2018-04-22T05:33:46.268Z,30.13
2018-04-22T05:36:13.672Z,28.80
2018-04-22T05:38:41.270Z,37.80
2018-04-22T05:41:08.852Z,28.97
2018-04-22T05:43:36.241Z,29.40
2018-04-22T05:46:03.659Z,29.87
2018-04-22T05:48:31.107Z,29.33
2018-04-22T05:50:58.564Z,29.60
2018-04-22T05:53:25.952Z,25.33
2018-04-22T05:55:53.388Z,25.37
2018-04-22T05:58:21.054Z,21.17
2018-04-22T06:00:48.448Z,20.87
2018-04-22T06:03:15.840Z,26.37
2018-04-22T06:05:43.257Z,23.50
2018-04-22T06:08:11.039Z,22.90
2018-04-22T06:10:38.445Z,24.47
2018-04-22T06:13:05.832Z,24.98
2018-04-22T06:15:33.386Z,23.70
2018-04-22T06:18:00.937Z,23.67
2018-04-22T06:20:28.641Z,24.25
2018-04-22T06:22:56.032Z,23.97
2018-04-22T06:25:23.467Z,24.40
2018-04-22T06:27:50.864Z,27.63
2018-04-22T06:30:18.275Z,23.87
2018-04-22T06:32:45.671Z,27.60
2018-04-22T06:35:13.868Z,24.02
2018-04-22T06:37:41.281Z,25.63
2018-04-22T06:40:08.688Z,33.38
2018-04-22T06:42:36.448Z,23.63
2018-04-22T06:45:03.840Z,25.62
2018-04-22T06:47:31.248Z,24.70
2018-04-22T06:49:58.708Z,23.00
2018-04-22T06:52:26.181Z,22.10
2018-04-22T06:54:53.635Z,20.70
2018-04-22T06:57:21.069Z,22.93
2018-04-22T06:59:48.489Z,21.33
2018-04-22T07:02:16.672Z,23.87
2018-04-22T07:04:44.545Z,21.35
2018-04-22T07:07:12.800Z,24.63
2018-04-22T07:09:40.193Z,24.47
2018-04-22T07:12:07.588Z,21.02
2018-04-22T07:14:35.373Z,21.60
2018-04-22T07:17:02.899Z,22.67
2018-04-22T07:19:30.295Z,20.55
2018-04-22T07:21:58.408Z,17.17
2018-04-22T07:24:25.803Z,17.20
2018-04-22T07:26:54.222Z,20.25
2018-04-22T07:29:21.688Z,15.60
2018-04-22T07:31:49.886Z,15.17
2018-04-22T07:34:18.180Z,16.70
2018-04-22T07:36:45.579Z,16.80
2018-04-22T07:39:13.111Z,21.13
2018-04-22T07:41:40.851Z,13.60
2018-04-22T07:44:10.707Z,15.27
2018-04-22T07:46:38.134Z,13.40
2018-04-22T07:49:05.521Z,18.93
2018-04-22T07:51:32.922Z,21.30
2018-04-22T07:54:00.331Z,20.50
2018-04-22T07:56:27.724Z,16.40
2018-04-22T07:58:55.398Z,18.90
2018-04-22T08:01:23.164Z,18.27
2018-04-22T08:03:53.189Z,17.12
2018-04-22T08:06:25.738Z,17.47
2018-04-22T08:08:53.220Z,18.57
2018-04-22T08:11:20.623Z,15.73
2018-04-22T08:13:49.109Z,16.80
2018-04-22T08:16:16.796Z,17.00
2018-04-22T08:18:44.196Z,19.00
2018-04-22T08:21:11.590Z,14.73
2018-04-22T08:23:39.092Z,14.43
2018-04-22T08:26:06.439Z,15.53
2018-04-22T08:28:33.852Z,14.32
2018-04-22T08:31:04.135Z,13.52
2018-04-22T08:33:33.776Z,18.23
2018-04-22T08:36:02.342Z,14.80
2018-04-22T08:38:31.645Z,12.07
2018-04-22T08:41:02.046Z,12.65
2018-04-22T08:43:31.287Z,12.57
2018-04-22T08:45:59.193Z,15.13
2018-04-22T08:48:27.576Z,10.32
2018-04-22T08:50:57.673Z,12.03
2018-04-22T08:53:26.297Z,11.80
2018-04-22T08:55:56.527Z,14.93
2018-04-22T09:15:42.118Z,15.33
2018-04-22T09:18:11.988Z,10.80
2018-04-22T09:20:41.036Z,10.53
2018-04-22T09:23:10.647Z,10.20
2018-04-22T09:25:40.130Z,9.47
2018-04-22T09:28:09.359Z,10.10
2018-04-22T09:30:37.835Z,9.10
2018-04-22T09:33:08.049Z,9.03
2018-04-22T09:35:36.949Z,9.83
2018-04-22T09:38:07.074Z,11.17
2018-04-22T09:40:36.236Z,10.80
2018-04-22T09:43:18.322Z,9.17
2018-04-22T09:49:08.864Z,9.83
2018-04-22T09:51:38.199Z,7.15
2018-04-22T09:54:07.611Z,8.10
2018-04-22T09:56:36.988Z,9.00
2018-04-22T09:59:06.501Z,11.30
2018-04-22T10:01:37.716Z,10.95
2018-04-22T10:04:10.438Z,8.63
2018-04-22T10:06:39.262Z,15.13
2018-04-22T10:09:09.192Z,7.93
2018-04-22T10:11:38.885Z,7.83
2018-04-22T10:14:10.388Z,7.20
2018-04-22T10:16:39.917Z,7.00
2018-04-22T10:19:14.869Z,7.37
2018-04-22T10:21:46.233Z,6.93
2018-04-22T10:24:15.190Z,6.83
2018-04-22T10:26:45.992Z,8.60
2018-04-22T10:29:15.998Z,6.97
2018-04-22T10:31:45.893Z,6.40
2018-04-22T10:34:13.275Z,10.43
2018-04-22T10:36:40.693Z,6.93
2018-04-22T10:39:08.081Z,6.17
2018-04-22T10:41:35.491Z,9.00
2018-04-22T10:44:02.880Z,7.20
2018-04-22T10:46:30.918Z,6.93
2018-04-22T10:48:58.390Z,6.20
2018-04-22T10:51:26.691Z,7.75
2018-04-22T10:53:54.248Z,12.50
2018-04-22T10:56:21.633Z,7.67
2018-04-22T10:58:49.067Z,7.70
2018-04-22T11:01:19.516Z,8.10
2018-04-22T11:03:46.939Z,5.17
2018-04-22T11:06:15.125Z,5.45
2018-04-22T11:08:42.500Z,5.17
2018-04-22T11:11:09.897Z,6.50
2018-04-22T11:13:37.403Z,4.07
2018-04-22T11:16:04.780Z,6.17
2018-04-22T11:18:32.167Z,4.00
2018-04-22T11:20:59.568Z,5.73
2018-04-22T11:23:27.077Z,5.83
2018-04-22T11:25:54.451Z,10.23
2018-04-22T15:01:32.900Z,3.80
2018-04-22T15:04:01.214Z,3.40
2018-04-22T15:06:29.587Z,3.78
2018-04-22T15:08:56.987Z,7.03
2018-04-22T15:11:24.571Z,2.87
2018-04-22T15:13:51.951Z,6.20
2018-04-22T15:16:19.350Z,3.63
2018-04-22T15:18:46.745Z,2.93
2018-04-22T15:21:14.133Z,3.93
2018-04-22T15:23:41.657Z,3.43
2018-04-22T15:26:09.079Z,5.17
2018-04-22T15:28:36.469Z,2.97
2018-04-22T15:31:04.088Z,3.80
2018-04-22T15:33:33.500Z,5.15
2018-04-22T15:36:01.245Z,6.20
2018-04-22T15:38:28.642Z,4.78
2018-04-22T15:40:56.064Z,3.73
2018-04-22T15:43:23.464Z,3.47
2018-04-22T15:45:50.849Z,8.02
2018-04-22T15:48:18.825Z,4.20
2018-04-22T15:50:46.208Z,4.35
2018-04-22T15:53:13.613Z,4.30
2018-04-22T15:55:41.432Z,3.73
2018-04-22T15:58:08.855Z,3.13
2018-04-22T16:00:36.221Z,3.53
2018-04-22T16:03:03.611Z,4.83
2018-04-22T16:05:31.932Z,6.80
2018-04-22T16:07:59.330Z,4.17
2018-04-22T16:10:26.732Z,4.00
2018-04-22T16:12:54.560Z,4.10
2018-04-22T16:15:22.139Z,7.40
2018-04-22T16:17:49.527Z,3.27
2018-04-22T16:20:16.917Z,4.03
2018-04-22T16:22:44.331Z,3.80
2018-04-22T16:25:11.734Z,3.20
2018-04-22T16:27:39.132Z,3.47
2018-04-22T16:30:06.898Z,19.53
2018-04-22T16:32:34.302Z,11.63
2018-04-22T16:35:01.697Z,6.77
2018-04-22T16:37:29.089Z,3.40
2018-04-22T16:39:56.540Z,4.40
2018-04-22T16:42:24.136Z,5.47
2018-04-22T16:44:51.565Z,4.40
2018-04-22T16:47:19.278Z,3.57
2018-04-22T16:49:47.668Z,4.73
2018-04-22T16:52:15.067Z,4.57
2018-04-22T16:54:42.467Z,2.93
2018-04-22T16:57:11.311Z,3.17
2018-04-22T16:59:38.718Z,4.00
2018-04-22T17:02:06.118Z,3.50
2018-04-22T17:04:34.324Z,3.87
2018-04-22T17:07:01.720Z,3.30
2018-04-22T17:09:29.115Z,3.60
2018-04-22T17:11:56.492Z,4.40
2018-04-22T17:14:23.896Z,6.50
2018-04-22T17:16:51.289Z,10.03
2018-04-22T17:19:18.685Z,5.00
2018-04-22T17:21:46.068Z,6.30
2018-04-22T17:24:13.490Z,4.53
2018-04-22T17:26:41.089Z,4.62
2018-04-22T17:29:08.853Z,3.93
2018-04-22T17:31:36.341Z,3.30
2018-04-22T17:34:03.767Z,5.50
2018-04-22T17:36:31.152Z,5.70
2018-04-22T17:38:58.618Z,3.80
2018-04-22T17:41:26.014Z,4.73
2018-04-22T17:43:53.439Z,3.43
2018-04-22T17:46:20.850Z,5.53
2018-04-22T17:48:48.243Z,3.37
2018-04-22T17:51:16.600Z,6.40
2018-04-22T17:53:44.065Z,10.17
2018-04-22T17:56:12.124Z,5.68
2018-04-22T17:58:39.508Z,5.80
2018-04-22T18:01:06.905Z,5.77
2018-04-22T18:03:34.514Z,7.40
2018-04-22T18:06:01.903Z,4.30
2018-04-22T18:08:29.295Z,7.27
2018-04-22T18:10:57.321Z,5.90
2018-04-22T18:13:24.722Z,12.57
2018-04-22T18:15:52.115Z,8.30
2018-04-22T18:18:19.496Z,3.33
2018-04-22T18:20:47.332Z,4.33
2018-04-22T18:23:15.437Z,4.70
2018-04-22T18:25:42.844Z,5.95
2018-04-22T18:28:10.219Z,7.07
2018-04-22T18:30:38.103Z,5.12
2018-04-22T18:33:05.497Z,2.40
2018-04-22T18:35:33.617Z,3.83
2018-04-22T18:38:01.001Z,6.70
2018-04-22T18:40:28.400Z,4.12
2018-04-22T18:42:55.789Z,4.12
2018-04-22T18:45:23.473Z,3.08
2018-04-22T18:47:50.877Z,3.90
2018-04-22T18:50:18.272Z,5.77
2018-04-22T18:52:45.663Z,4.57
2018-04-22T18:55:13.074Z,4.35
2018-04-22T18:57:40.465Z,2.90
2018-04-22T19:00:07.853Z,3.73
2018-04-22T19:02:35.285Z,4.50
2018-04-22T19:05:02.634Z,2.87
2018-04-22T19:07:30.030Z,4.53
2018-04-22T19:09:57.427Z,3.37
2018-04-22T19:12:24.816Z,3.90
2018-04-22T19:14:52.224Z,8.80
2018-04-22T19:17:19.666Z,3.97
2018-04-22T19:19:47.003Z,2.70
2018-04-22T19:22:14.401Z,4.22
2018-04-22T19:24:41.781Z,2.77
2018-04-22T19:27:09.183Z,4.77
2018-04-22T19:29:36.586Z,7.50
2018-04-22T19:32:03.970Z,2.90
2018-04-22T19:34:31.407Z,4.90
2018-04-22T19:36:58.791Z,5.77
2018-04-22T19:39:26.181Z,4.90
2018-04-22T19:41:53.584Z,11.57
2018-04-22T19:44:20.987Z,2.80
2018-04-22T19:46:48.369Z,5.10
2018-04-22T19:49:15.752Z,4.70
2018-04-22T19:51:43.158Z,4.03
2018-04-22T19:54:10.533Z,2.50
2018-04-22T19:56:38.061Z,2.53
2018-04-22T19:59:05.442Z,4.47
2018-04-22T20:01:32.911Z,3.57
2018-04-22T20:04:00.283Z,3.67
2018-04-22T20:06:27.681Z,4.47
2018-04-22T20:08:55.363Z,4.83
2018-04-22T20:11:22.747Z,4.07
2018-04-22T20:13:50.864Z,3.77
2018-04-22T20:16:18.263Z,2.47
2018-04-22T20:18:45.653Z,2.97
2018-04-22T20:21:13.482Z,8.35
2018-04-22T20:23:40.855Z,3.70
2018-04-22T20:26:08.249Z,4.50
2018-04-22T20:28:35.864Z,7.90
2018-04-22T20:31:03.236Z,4.23
2018-04-22T20:33:30.936Z,5.30
2018-04-22T20:35:58.323Z,4.20
2018-04-22T20:38:25.719Z,8.30
2018-04-22T20:40:53.176Z,3.30
2018-04-22T20:43:20.572Z,2.73
2018-04-22T20:45:48.156Z,4.03
2018-04-22T20:48:15.547Z,3.50
2018-04-22T20:50:42.928Z,4.00
2018-04-22T20:53:10.342Z,6.43
2018-04-22T20:55:37.716Z,2.97
2018-04-22T20:58:05.126Z,4.47
2018-04-22T21:00:32.505Z,4.30
2018-04-22T21:02:59.892Z,3.60
2018-04-22T21:05:27.278Z,5.57
2018-04-22T21:07:54.838Z,4.43
2018-04-22T21:10:22.221Z,3.70
2018-04-22T21:12:49.602Z,4.10
2018-04-22T21:15:17.728Z,3.93
2018-04-22T21:17:45.121Z,4.30
2018-04-22T21:20:13.377Z,4.60
2018-04-22T21:22:40.861Z,3.40
2018-04-22T21:25:08.280Z,6.30
2018-04-22T21:27:35.671Z,4.03
2018-04-22T21:30:03.064Z,4.07
2018-04-22T21:32:30.859Z,3.87
2018-04-22T21:34:58.259Z,2.80
2018-04-22T21:37:25.638Z,7.90
2018-04-22T21:39:53.088Z,5.60
2018-04-22T21:42:20.512Z,4.03
2018-04-22T21:44:47.904Z,4.63
2018-04-22T21:47:15.675Z,4.65
2018-04-22T21:49:43.766Z,3.83
2018-04-22T21:52:11.155Z,5.13
2018-04-22T21:54:38.557Z,3.50
2018-04-22T21:57:05.963Z,4.93
2018-04-22T22:02:38.048Z,3.80
2018-04-22T22:05:05.806Z,4.07
2018-04-22T22:07:33.502Z,5.37
2018-04-22T22:10:01.014Z,4.60
2018-04-22T22:12:28.404Z,4.17
2018-04-22T22:14:55.793Z,5.10
2018-04-22T22:17:23.176Z,4.60
2018-04-22T22:19:50.574Z,4.13
2018-04-22T22:22:17.954Z,5.17
2018-04-22T22:24:45.350Z,8.80
2018-04-22T22:27:13.008Z,4.93
2018-04-22T22:29:40.429Z,6.20
2018-04-22T22:32:07.819Z,3.33
2018-04-22T22:34:35.304Z,6.00
2018-04-22T22:37:02.695Z,5.53
2018-04-22T22:39:30.068Z,4.17
2018-04-22T22:41:57.468Z,4.23
2018-04-22T22:44:24.856Z,4.70
2018-04-22T22:46:52.418Z,4.70
2018-04-22T22:49:19.801Z,4.50
2018-04-22T22:51:48.439Z,4.28
2018-04-22T22:54:15.841Z,6.50
2018-04-22T22:56:43.246Z,3.57
2018-04-22T22:59:11.337Z,6.00
2018-04-22T23:01:38.731Z,5.20
2018-04-22T23:04:06.112Z,6.43
2018-04-22T23:06:33.527Z,4.05
2018-04-22T23:09:00.907Z,5.00
2018-04-22T23:11:28.468Z,3.73
2018-04-22T23:13:56.381Z,4.82
2018-04-22T23:16:23.805Z,4.13
2018-04-22T23:18:51.414Z,7.23
2018-04-22T23:21:18.817Z,4.53
2018-04-22T23:23:46.195Z,4.43
2018-04-22T23:26:13.599Z,5.83
2018-04-22T23:28:40.977Z,8.07
2018-04-22T23:31:08.368Z,4.93
2018-04-22T23:33:35.761Z,4.83
2018-04-22T23:36:03.224Z,4.43
2018-04-22T23:38:30.638Z,5.95
2018-04-22T23:40:58.028Z,4.67
2018-04-22T23:43:25.427Z,3.90
2018-04-22T23:45:52.906Z,3.80
2018-04-22T23:48:20.301Z,4.10
2018-04-22T23:50:47.681Z,4.80
2018-04-22T23:53:15.070Z,4.10
2018-04-22T23:55:42.503Z,5.00
2018-04-22T23:58:09.892Z,4.30
